createdAt,value
2018-07-25T00:00:34.119Z,21.30
2018-07-25T00:03:02.900Z,21.30
2018-07-25T00:05:31.610Z,21.30
2018-07-25T00:07:59.823Z,21.30
2018-07-25T00:10:33.278Z,21.30
2018-07-25T00:13:02.051Z,21.10
2018-07-25T00:15:30.861Z,21.10
2018-07-25T00:17:59.035Z,21.10
2018-07-25T00:20:27.277Z,21.10
2018-07-25T00:22:55.486Z,21.00
2018-07-25T00:25:23.740Z,21.00
2018-07-25T00:27:52.047Z,21.00
2018-07-25T00:30:20.774Z,21.00
2018-07-25T00:32:49.502Z,21.00
2018-07-25T00:35:17.707Z,20.90
2018-07-25T00:37:45.931Z,20.80
2018-07-25T00:40:14.510Z,20.80
2018-07-25T00:42:42.763Z,20.80
2018-07-25T00:45:10.990Z,20.80
2018-07-25T00:47:46.235Z,20.80
2018-07-25T00:50:14.431Z,20.80
2018-07-25T00:52:43.088Z,20.70
2018-07-25T00:55:11.299Z,20.70
2018-07-25T00:57:39.514Z,20.70
2018-07-25T01:00:08.114Z,20.70
2018-07-25T01:02:36.315Z,20.70
2018-07-25T01:05:05.078Z,20.80
2018-07-25T01:07:33.334Z,20.70
2018-07-25T01:10:01.553Z,20.70
2018-07-25T01:12:30.278Z,20.60
2018-07-25T01:14:59.152Z,20.60
2018-07-25T01:17:28.162Z,20.60
2018-07-25T01:19:56.801Z,20.60
2018-07-25T01:22:25.039Z,20.60
2018-07-25T01:24:53.316Z,20.50
2018-07-25T01:27:21.538Z,20.40
2018-07-25T01:29:50.159Z,20.30
2018-07-25T01:32:18.958Z,20.40
2018-07-25T01:34:47.244Z,20.40
2018-07-25T01:37:15.457Z,20.30
2018-07-25T01:39:43.840Z,20.30
2018-07-25T01:42:12.054Z,20.30
2018-07-25T01:44:40.359Z,20.30
2018-07-25T01:47:08.739Z,20.20
2018-07-25T01:49:37.351Z,20.20
2018-07-25T01:52:07.371Z,20.10
2018-07-25T01:54:35.606Z,19.90
2018-07-25T01:57:03.803Z,19.90
2018-07-25T01:59:32.423Z,20.00
2018-07-25T02:02:01.294Z,19.90
2018-07-25T02:04:29.539Z,19.80
2018-07-25T02:06:58.075Z,19.90
2018-07-25T02:09:26.291Z,19.90
2018-07-25T02:11:54.523Z,19.90
2018-07-25T02:14:23.055Z,19.80
2018-07-25T02:16:51.747Z,19.80
2018-07-25T02:19:20.695Z,19.80
2018-07-25T02:21:49.138Z,19.80
2018-07-25T02:24:17.346Z,19.80
2018-07-25T02:26:45.618Z,19.80
2018-07-25T02:29:14.511Z,19.70
2018-07-25T02:31:42.731Z,19.70
2018-07-25T02:34:16.583Z,19.70
2018-07-25T02:36:44.803Z,19.70
2018-07-25T02:39:14.035Z,19.70
2018-07-25T02:41:43.126Z,19.60
2018-07-25T02:44:11.598Z,19.60
2018-07-25T02:46:39.887Z,19.60
2018-07-25T02:51:47.266Z,19.60
2018-07-25T02:54:16.049Z,19.40
2018-07-25T02:56:44.254Z,19.50
2018-07-25T02:59:12.942Z,19.50
2018-07-25T03:01:41.199Z,19.50
2018-07-25T03:04:09.846Z,19.50
2018-07-25T03:06:38.358Z,19.50
2018-07-25T03:09:08.591Z,19.40
2018-07-25T03:11:36.876Z,19.40
2018-07-25T03:14:05.795Z,19.40
2018-07-25T03:16:34.357Z,19.40
2018-07-25T03:19:02.557Z,19.40
2018-07-25T03:21:30.776Z,19.40
2018-07-25T03:26:26.969Z,19.30
2018-07-25T03:28:55.235Z,19.20
2018-07-25T03:31:23.480Z,19.20
2018-07-25T03:33:51.999Z,19.00
2018-07-25T03:36:20.251Z,19.00
2018-07-25T03:38:48.463Z,19.00
2018-07-25T03:41:17.407Z,18.90
2018-07-25T03:43:45.844Z,18.90
2018-07-25T03:46:14.076Z,19.00
2018-07-25T03:48:42.286Z,19.00
2018-07-25T03:51:11.239Z,19.00
2018-07-25T03:53:40.166Z,19.00
2018-07-25T03:56:08.435Z,19.00
2018-07-25T03:58:37.007Z,19.00
2018-07-25T04:03:39.534Z,19.00
2018-07-25T04:06:07.753Z,19.00
2018-07-25T04:08:35.962Z,19.00
2018-07-25T04:11:04.188Z,19.00
2018-07-25T04:13:32.818Z,19.00
2018-07-25T04:16:01.235Z,18.90
2018-07-25T04:18:29.457Z,18.90
2018-07-25T04:20:57.678Z,18.90
2018-07-25T04:23:25.918Z,18.90
2018-07-25T04:25:54.135Z,18.90
2018-07-25T04:28:22.416Z,18.90
2018-07-25T04:30:50.884Z,18.90
2018-07-25T04:33:19.294Z,18.90
2018-07-25T04:35:47.538Z,18.90
2018-07-25T04:38:16.110Z,18.90
2018-07-25T04:40:44.343Z,19.00
2018-07-25T04:43:12.550Z,19.00
2018-07-25T04:45:40.791Z,19.00
2018-07-25T04:48:09.034Z,18.90
2018-07-25T04:50:37.928Z,18.90
2018-07-25T04:53:06.494Z,18.90
2018-07-25T04:55:35.138Z,18.90
2018-07-25T04:58:03.396Z,18.90
2018-07-25T05:00:31.934Z,18.90
2018-07-25T05:03:00.198Z,19.00
2018-07-25T05:05:28.452Z,19.00
2018-07-25T05:07:56.710Z,19.10
2018-07-25T05:10:24.940Z,19.20
2018-07-25T05:12:53.819Z,19.20
2018-07-25T05:15:23.036Z,19.40
2018-07-25T05:17:51.259Z,19.40
2018-07-25T05:20:19.763Z,19.50
2018-07-25T05:22:47.978Z,19.50
2018-07-25T05:25:16.222Z,19.60
2018-07-25T05:27:44.470Z,19.70
2018-07-25T05:30:12.714Z,19.70
2018-07-25T05:32:41.426Z,19.80
2018-07-25T05:35:09.634Z,19.80
2018-07-25T05:37:38.718Z,20.00
2018-07-25T05:40:06.947Z,20.20
2018-07-25T05:42:35.558Z,20.30
2018-07-25T05:45:04.482Z,20.60
2018-07-25T05:47:33.289Z,20.80
2018-07-25T05:50:01.518Z,21.00
2018-07-25T05:52:30.141Z,21.20
2018-07-25T05:54:58.362Z,21.40
2018-07-25T05:57:26.591Z,21.50
2018-07-25T05:59:55.151Z,21.70
2018-07-25T06:02:23.359Z,21.90
2018-07-25T06:04:51.973Z,21.90
2018-07-25T06:07:20.198Z,22.10
2018-07-25T06:09:48.462Z,22.20
2018-07-25T06:12:19.726Z,22.40
2018-07-25T06:14:48.506Z,22.40
2018-07-25T06:17:16.730Z,22.60
2018-07-25T06:19:44.943Z,22.70
2018-07-25T06:22:14.118Z,22.90
2018-07-25T06:24:42.339Z,22.90
2018-07-25T06:27:10.539Z,23.10
2018-07-25T06:29:39.541Z,23.20
2018-07-25T06:32:08.324Z,23.40
2018-07-25T06:34:36.532Z,23.70
2018-07-25T06:37:05.087Z,23.90
2018-07-25T06:39:33.295Z,24.10
2018-07-25T06:42:01.525Z,24.40
2018-07-25T06:44:29.758Z,24.60
2018-07-25T06:46:57.967Z,24.90
2018-07-25T06:49:26.251Z,25.20
2018-07-25T06:51:54.476Z,25.50
2018-07-25T06:54:23.019Z,25.90
2018-07-25T06:56:51.242Z,26.20
2018-07-25T06:59:20.135Z,26.60
2018-07-25T07:01:48.800Z,26.90
2018-07-25T07:04:17.008Z,27.00
2018-07-25T07:06:45.288Z,27.50
2018-07-25T07:09:13.690Z,28.00
2018-07-25T07:11:41.918Z,28.90
2018-07-25T07:14:10.518Z,29.40
2018-07-25T07:16:39.177Z,29.10
2018-07-25T07:19:07.386Z,29.70
2018-07-25T07:21:42.719Z,30.70
2018-07-25T07:24:11.601Z,31.10
2018-07-25T07:26:39.726Z,31.50
2018-07-25T07:29:08.268Z,31.70
2018-07-25T07:31:36.476Z,32.20
2018-07-25T07:34:04.970Z,32.90
2018-07-25T07:36:33.171Z,32.40
2018-07-25T07:39:01.400Z,32.70
2018-07-25T07:41:29.635Z,33.80
2018-07-25T07:43:57.822Z,33.90
2018-07-25T07:46:26.199Z,34.20
2018-07-25T07:48:55.077Z,34.00
2018-07-25T07:51:23.934Z,34.40
2018-07-25T07:53:52.531Z,34.60
2018-07-25T07:56:20.709Z,35.20
2018-07-25T07:58:49.405Z,36.10
2018-07-25T08:01:18.862Z,36.30
2018-07-25T08:03:47.323Z,36.40
2018-07-25T08:06:15.530Z,37.10
2018-07-25T08:08:45.498Z,37.20
2018-07-25T08:11:18.126Z,36.90
2018-07-25T08:13:47.567Z,37.60
2018-07-25T08:16:23.036Z,37.80
2018-07-25T08:18:51.229Z,37.90
2018-07-25T08:21:19.411Z,36.80
2018-07-25T08:23:47.630Z,37.20
2018-07-25T08:26:15.852Z,37.30
2018-07-25T08:28:44.322Z,38.10
2018-07-25T08:31:12.579Z,37.50
2018-07-25T08:33:41.073Z,38.60
2018-07-25T08:36:09.289Z,39.50
2018-07-25T08:38:40.671Z,39.00
2018-07-25T08:41:09.496Z,39.20
2018-07-25T08:43:38.735Z,39.90
2018-07-25T08:46:08.125Z,40.20
2018-07-25T08:48:36.515Z,40.60
2018-07-25T08:51:04.678Z,39.30
2018-07-25T08:53:33.708Z,40.10
2018-07-25T08:56:01.935Z,39.70
2018-07-25T08:58:30.230Z,40.10
2018-07-25T09:00:59.262Z,41.00
2018-07-25T09:03:27.924Z,38.90
2018-07-25T09:05:56.129Z,39.40
2018-07-25T09:08:24.347Z,40.70
2018-07-25T09:10:53.082Z,40.00
2018-07-25T09:13:21.822Z,39.60
2018-07-25T09:15:50.455Z,40.90
2018-07-25T09:18:18.667Z,39.80
2018-07-25T09:20:46.874Z,38.40
2018-07-25T09:23:15.366Z,40.20
2018-07-25T09:25:43.558Z,41.50
2018-07-25T09:28:12.080Z,40.30
2018-07-25T09:30:40.254Z,41.40
2018-07-25T09:33:08.730Z,42.70
2018-07-25T09:35:36.950Z,43.10
2018-07-25T09:38:05.150Z,43.70
2018-07-25T09:40:33.355Z,44.10
2018-07-25T09:43:01.565Z,43.50
2018-07-25T09:45:29.827Z,41.40
2018-07-25T09:47:58.049Z,40.90
2018-07-25T09:50:26.983Z,41.80
2018-07-25T09:52:56.270Z,41.50
2018-07-25T09:55:25.010Z,41.30
2018-07-25T09:57:53.208Z,41.10
2018-07-25T10:00:27.058Z,41.10
2018-07-25T10:02:55.520Z,39.90
2018-07-25T10:05:23.736Z,41.20
2018-07-25T10:07:51.925Z,41.20
2018-07-25T10:10:20.134Z,41.20
2018-07-25T10:12:49.068Z,41.20
2018-07-25T10:15:17.748Z,40.70
2018-07-25T10:17:46.190Z,41.80
2018-07-25T10:20:14.403Z,42.70
2018-07-25T10:22:43.124Z,40.20
2018-07-25T10:25:11.342Z,41.30
2018-07-25T10:27:39.501Z,43.00
2018-07-25T10:30:08.060Z,43.80
2018-07-25T10:32:36.715Z,43.40
2018-07-25T10:35:04.947Z,44.00
2018-07-25T10:37:33.134Z,44.10
2018-07-25T10:40:01.350Z,45.00
2018-07-25T10:42:29.935Z,45.60
2018-07-25T10:44:58.477Z,45.30
2018-07-25T10:47:26.695Z,45.00
2018-07-25T10:49:55.354Z,45.20
2018-07-25T10:52:24.213Z,44.90
2018-07-25T10:54:52.236Z,44.90
2018-07-25T10:57:20.436Z,45.40
2018-07-25T10:59:49.252Z,45.70
2018-07-25T11:02:17.606Z,46.50
2018-07-25T11:04:45.656Z,46.70
2018-07-25T11:07:13.855Z,46.80
2018-07-25T11:09:42.561Z,46.90
2018-07-25T11:14:45.532Z,45.30
2018-07-25T11:17:13.784Z,45.70
2018-07-25T11:19:41.990Z,44.70
2018-07-25T11:22:10.226Z,43.40
2018-07-25T11:24:38.571Z,43.90
2018-07-25T11:27:06.886Z,42.00
2018-07-25T11:29:35.685Z,40.30
2018-07-25T11:32:07.767Z,38.00
2018-07-25T11:34:35.996Z,36.80
2018-07-25T11:37:04.255Z,36.30
2018-07-25T11:39:32.886Z,35.30
2018-07-25T11:42:01.139Z,34.00
2018-07-25T11:44:29.335Z,34.60
2018-07-25T11:46:57.571Z,35.70
2018-07-25T11:49:25.790Z,38.00
2018-07-25T11:51:54.063Z,40.10
2018-07-25T11:54:22.836Z,40.50
2018-07-25T11:56:51.684Z,41.80
2018-07-25T11:59:20.327Z,42.60
2018-07-25T12:01:48.643Z,43.00
2018-07-25T12:04:17.136Z,43.10
2018-07-25T12:06:45.351Z,43.20
2018-07-25T12:09:13.579Z,42.70
2018-07-25T12:11:46.772Z,41.60
2018-07-25T12:14:16.792Z,40.30
2018-07-25T12:16:45.503Z,38.30
2018-07-25T12:19:13.929Z,36.70
2018-07-25T12:21:42.132Z,35.20
2018-07-25T12:24:10.359Z,34.40
2018-07-25T12:26:38.579Z,33.40
2018-07-25T12:29:06.808Z,33.30
2018-07-25T12:34:09.015Z,32.60
2018-07-25T12:36:37.222Z,32.40
2018-07-25T12:39:07.995Z,34.00
2018-07-25T12:41:36.320Z,36.10
2018-07-25T12:44:04.527Z,35.40
2018-07-25T12:46:32.792Z,35.10
2018-07-25T12:49:01.353Z,34.40
2018-07-25T12:51:29.546Z,32.70
2018-07-25T12:53:58.265Z,32.50
2018-07-25T12:56:26.369Z,32.70
2018-07-25T12:58:55.104Z,31.70
2018-07-25T13:01:23.310Z,31.40
2018-07-25T13:03:51.960Z,31.30
2018-07-25T13:06:20.195Z,31.10
2018-07-25T13:08:48.435Z,30.90
2018-07-25T13:11:16.647Z,30.90
2018-07-25T13:13:45.538Z,30.80
2018-07-25T13:16:14.294Z,30.70
2018-07-25T13:18:42.490Z,31.10
2018-07-25T13:21:10.727Z,31.30
2018-07-25T13:23:39.395Z,31.10
2018-07-25T13:26:07.627Z,31.30
2018-07-25T13:28:36.138Z,30.90
2018-07-25T13:31:04.362Z,30.70
2018-07-25T13:33:32.835Z,30.50
2018-07-25T13:36:01.073Z,30.40
2018-07-25T13:38:29.278Z,30.30
2018-07-25T13:40:57.531Z,30.10
2018-07-25T13:43:25.947Z,30.00
2018-07-25T13:45:54.580Z,30.00
2018-07-25T13:48:23.270Z,30.00
2018-07-25T13:50:51.463Z,30.30
2018-07-25T13:53:20.041Z,30.50
2018-07-25T13:55:48.258Z,30.40
2018-07-25T13:58:16.493Z,30.30
2018-07-25T14:00:44.888Z,30.30
2018-07-25T14:03:13.109Z,29.70
2018-07-25T14:05:41.378Z,29.50
2018-07-25T14:08:09.599Z,29.40
2018-07-25T14:10:37.799Z,29.10
2018-07-25T14:13:06.423Z,28.90
2018-07-25T14:15:35.118Z,28.90
2018-07-25T14:18:03.373Z,29.10
2018-07-25T14:20:32.137Z,29.20
2018-07-25T14:23:00.317Z,29.20
2018-07-25T14:25:28.618Z,28.80
2018-07-25T14:27:56.836Z,28.80
2018-07-25T14:30:25.209Z,28.90
2018-07-25T14:32:53.835Z,28.90
2018-07-25T14:35:22.039Z,29.30
2018-07-25T14:37:50.274Z,29.30
2018-07-25T14:40:19.196Z,29.60
2018-07-25T14:42:47.343Z,29.50
2018-07-25T14:45:15.607Z,29.90
2018-07-25T14:47:43.868Z,29.60
2018-07-25T14:50:12.066Z,29.70
2018-07-25T14:52:40.806Z,29.40
2018-07-25T14:55:09.035Z,29.40
2018-07-25T14:57:37.285Z,29.50
2018-07-25T15:00:06.879Z,29.40
2018-07-25T15:02:35.378Z,29.50
2018-07-25T15:05:03.578Z,29.40
2018-07-25T15:07:31.774Z,29.30
2018-07-25T15:10:00.508Z,29.30
2018-07-25T15:12:34.671Z,29.40
2018-07-25T15:15:03.444Z,29.50
2018-07-25T15:17:31.656Z,29.40
2018-07-25T15:19:59.875Z,29.40
2018-07-25T15:22:28.107Z,29.30
2018-07-25T15:24:56.780Z,29.20
2018-07-25T15:27:25.434Z,29.30
2018-07-25T15:29:54.139Z,29.20
2018-07-25T15:32:22.787Z,29.10
2018-07-25T15:34:50.995Z,29.10
2018-07-25T15:37:19.233Z,29.30
2018-07-25T15:39:47.446Z,29.60
2018-07-25T15:42:16.095Z,29.90
2018-07-25T15:44:44.739Z,29.90
2018-07-25T15:47:12.960Z,30.00
2018-07-25T15:49:41.189Z,30.00
2018-07-25T15:52:09.851Z,30.00
2018-07-25T15:54:38.118Z,30.00
2018-07-25T15:57:06.355Z,30.20
2018-07-25T15:59:34.707Z,30.10
2018-07-25T16:02:02.994Z,30.00
2018-07-25T16:04:31.307Z,29.90
2018-07-25T16:06:59.784Z,29.90
2018-07-25T16:09:27.986Z,29.60
2018-07-25T16:11:56.191Z,29.50
2018-07-25T16:14:24.546Z,29.60
2018-07-25T16:16:52.932Z,29.50
2018-07-25T16:19:21.183Z,29.30
2018-07-25T16:21:49.393Z,29.00
2018-07-25T16:24:18.310Z,28.80
2018-07-25T16:26:46.490Z,29.10
2018-07-25T16:29:15.003Z,29.10
2018-07-25T16:31:43.218Z,29.00
2018-07-25T16:34:11.619Z,28.80
2018-07-25T16:36:40.052Z,28.50
2018-07-25T16:39:12.372Z,28.20
2018-07-25T16:41:40.599Z,28.10
2018-07-25T16:44:09.019Z,28.00
2018-07-25T16:46:37.253Z,27.90
2018-07-25T16:49:06.031Z,27.90
2018-07-25T16:51:34.517Z,28.00
2018-07-25T16:54:03.467Z,27.90
2018-07-25T16:56:31.738Z,27.90
2018-07-25T16:58:59.976Z,27.80
2018-07-25T17:01:28.750Z,27.70
2018-07-25T17:03:57.466Z,27.70
2018-07-25T17:06:25.718Z,27.40
2018-07-25T17:08:53.941Z,27.40
2018-07-25T17:11:22.200Z,27.30
2018-07-25T17:13:50.782Z,27.30
2018-07-25T17:16:19.229Z,27.20
2018-07-25T17:18:47.512Z,27.20
2018-07-25T17:21:15.745Z,27.10
2018-07-25T17:23:43.991Z,27.20
2018-07-25T17:26:12.755Z,27.10
2018-07-25T17:28:41.512Z,27.10
2018-07-25T17:31:09.762Z,27.20
2018-07-25T17:33:38.623Z,27.30
2018-07-25T17:36:06.859Z,27.30
2018-07-25T17:38:35.077Z,27.30
2018-07-25T17:41:03.413Z,27.30
2018-07-25T17:43:31.558Z,27.20
2018-07-25T17:46:00.276Z,27.10
2018-07-25T17:48:28.505Z,27.10
2018-07-25T17:50:56.771Z,27.20
2018-07-25T17:53:25.442Z,27.10
2018-07-25T17:55:54.038Z,27.10
2018-07-25T17:58:22.265Z,27.10
2018-07-25T18:00:57.085Z,26.90
2018-07-25T18:03:25.394Z,26.90
2018-07-25T18:05:53.603Z,27.00
2018-07-25T18:08:21.914Z,26.90
2018-07-25T18:10:50.144Z,26.90
2018-07-25T18:13:24.146Z,26.90
2018-07-25T18:15:53.715Z,26.80
2018-07-25T18:18:21.947Z,26.90
2018-07-25T18:20:50.196Z,26.80
2018-07-25T18:23:18.506Z,26.80
2018-07-25T18:25:46.699Z,26.80
2018-07-25T18:28:15.354Z,26.70
2018-07-25T18:30:43.624Z,26.70
2018-07-25T18:33:12.098Z,26.60
2018-07-25T18:35:40.388Z,26.60
2018-07-25T18:38:08.552Z,26.60
2018-07-25T18:40:36.803Z,26.50
2018-07-25T18:43:05.261Z,26.50
2018-07-25T18:45:34.510Z,26.50
2018-07-25T18:48:03.565Z,26.50
2018-07-25T18:50:32.102Z,26.30
2018-07-25T18:53:00.667Z,26.40
2018-07-25T18:55:28.879Z,26.40
2018-07-25T18:57:57.128Z,26.30
2018-07-25T19:00:25.407Z,26.40
2018-07-25T19:02:53.607Z,26.40
2018-07-25T19:05:28.242Z,26.40
2018-07-25T19:07:56.471Z,26.40
2018-07-25T19:10:24.737Z,26.30
2018-07-25T19:12:54.518Z,26.30
2018-07-25T19:15:29.296Z,26.40
2018-07-25T19:17:58.150Z,26.40
2018-07-25T19:20:26.438Z,26.40
2018-07-25T19:22:55.019Z,26.30
2018-07-25T19:25:23.688Z,26.30
2018-07-25T19:27:53.481Z,26.30
2018-07-25T19:30:21.730Z,26.30
2018-07-25T19:32:50.707Z,26.20
2018-07-25T19:35:19.195Z,26.20
2018-07-25T19:37:47.416Z,26.10
2018-07-25T19:40:15.660Z,26.00
2018-07-25T19:42:43.913Z,25.90
2018-07-25T19:45:12.484Z,25.90
2018-07-25T19:47:45.783Z,25.80
2018-07-25T19:50:14.251Z,25.70
2018-07-25T19:52:42.971Z,25.70
2018-07-25T19:55:11.791Z,25.60
2018-07-25T19:57:40.049Z,25.60
2018-07-25T20:00:08.310Z,25.50
2018-07-25T20:02:36.555Z,25.50
2018-07-25T20:05:05.167Z,25.40
2018-07-25T20:07:33.472Z,25.40
2018-07-25T20:10:01.702Z,25.40
2018-07-25T20:12:30.616Z,25.40
2018-07-25T20:15:04.721Z,25.30
2018-07-25T20:17:32.947Z,25.20
2018-07-25T20:20:01.201Z,25.20
2018-07-25T20:22:29.613Z,25.10
2018-07-25T20:24:58.058Z,25.00
2018-07-25T20:27:26.575Z,24.90
2018-07-25T20:29:54.802Z,24.90
2018-07-25T20:32:23.607Z,24.90
2018-07-25T20:34:51.831Z,24.90
2018-07-25T20:37:20.104Z,24.90
2018-07-25T20:39:48.334Z,24.80
2018-07-25T20:42:16.617Z,24.80
2018-07-25T20:44:45.123Z,24.70
2018-07-25T20:47:13.379Z,24.60
2018-07-25T20:49:41.812Z,24.60
2018-07-25T20:52:10.479Z,24.60
2018-07-25T20:54:38.920Z,24.50
2018-07-25T20:57:07.410Z,24.60
2018-07-25T20:59:35.646Z,24.60
2018-07-25T21:02:03.970Z,24.50
2018-07-25T21:04:32.203Z,24.50
2018-07-25T21:07:00.487Z,24.50
2018-07-25T21:09:28.735Z,24.60
2018-07-25T21:11:56.970Z,24.40
2018-07-25T21:14:25.382Z,24.50
2018-07-25T21:16:53.930Z,24.40
2018-07-25T21:19:22.198Z,24.40
2018-07-25T21:21:50.467Z,24.30
2018-07-25T21:24:19.061Z,24.30
2018-07-25T21:26:47.331Z,24.30
2018-07-25T21:29:15.554Z,24.20
2018-07-25T21:31:51.579Z,24.10
2018-07-25T21:34:19.957Z,24.10
2018-07-25T21:36:48.342Z,24.10
2018-07-25T21:39:16.576Z,24.00
2018-07-25T21:41:44.814Z,23.90
2018-07-25T21:44:13.463Z,23.90
2018-07-25T21:46:41.735Z,23.80
2018-07-25T21:49:16.373Z,23.80
2018-07-25T21:51:44.619Z,23.90
2018-07-25T21:55:37.868Z,23.90
2018-07-25T21:58:06.079Z,23.80
2018-07-25T22:00:34.343Z,23.70
2018-07-25T22:03:02.617Z,23.60
2018-07-25T22:05:30.992Z,23.50
2018-07-25T22:07:59.256Z,23.40
2018-07-25T22:10:27.572Z,23.50
2018-07-25T22:12:56.220Z,23.50
2018-07-25T22:15:24.941Z,23.40
2018-07-25T22:17:53.176Z,23.40
2018-07-25T22:20:21.440Z,23.30
2018-07-25T22:22:49.678Z,23.20
2018-07-25T22:25:18.211Z,23.20
2018-07-25T22:27:46.930Z,23.20
2018-07-25T22:30:15.211Z,23.20
2018-07-25T22:32:43.846Z,23.30
2018-07-25T22:35:18.942Z,23.20
2018-07-25T22:37:47.265Z,23.30
2018-07-25T22:40:15.418Z,23.30
2018-07-25T22:42:43.800Z,23.30
2018-07-25T22:45:12.455Z,23.30
2018-07-25T22:47:45.487Z,23.30
2018-07-25T22:50:20.435Z,23.20
2018-07-25T22:52:48.822Z,23.20
2018-07-25T22:55:17.639Z,23.30
2018-07-25T22:57:45.872Z,23.10
2018-07-25T23:00:14.075Z,23.20
2018-07-25T23:02:42.290Z,23.20
2018-07-25T23:05:11.030Z,23.30
2018-07-25T23:07:39.223Z,23.30
2018-07-25T23:10:07.427Z,23.20
2018-07-25T23:12:35.860Z,23.10
2018-07-25T23:15:05.160Z,23.00
2018-07-25T23:17:33.364Z,23.00
2018-07-25T23:20:01.612Z,23.00
2018-07-25T23:22:32.015Z,23.00
2018-07-25T23:25:00.228Z,23.10
2018-07-25T23:27:28.582Z,23.10
2018-07-25T23:29:56.799Z,22.90
2018-07-25T23:32:25.391Z,22.80
2018-07-25T23:34:53.614Z,22.80
2018-07-25T23:37:25.421Z,22.80
2018-07-25T23:39:53.644Z,22.60
2018-07-25T23:42:21.846Z,22.50
2018-07-25T23:44:50.091Z,22.60
2018-07-25T23:47:18.472Z,22.40
2018-07-25T23:49:46.679Z,22.20
2018-07-25T23:52:15.486Z,22.30
2018-07-25T23:54:43.708Z,22.40
2018-07-25T23:57:11.904Z,22.30
2018-07-25T23:59:40.283Z,22.40
